createdAt,value
2019-01-16T00:00:57.732Z,6.10
2019-01-16T00:03:37.892Z,6.00
2019-01-16T00:06:24.454Z,5.90
2019-01-16T00:09:15.607Z,6.00
2019-01-16T00:12:00.328Z,5.90
2019-01-16T00:15:02.262Z,6.00
2019-01-16T00:17:53.333Z,5.90
2019-01-16T00:20:56.563Z,5.90
2019-01-16T00:23:50.545Z,5.80
2019-01-16T00:26:37.048Z,5.80
2019-01-16T00:29:23.776Z,5.80
2019-01-16T00:32:21.271Z,5.80
2019-01-16T00:35:21.450Z,5.90
2019-01-16T00:38:09.532Z,5.80
2019-01-16T00:40:49.566Z,5.80
2019-01-16T00:43:41.195Z,5.70
2019-01-16T00:46:29.561Z,5.80
2019-01-16T00:49:29.636Z,5.70
2019-01-16T00:52:16.010Z,5.80
2019-01-16T00:55:09.907Z,5.80
2019-01-16T00:57:57.883Z,5.80
2019-01-16T01:00:46.098Z,5.80
2019-01-16T01:03:34.245Z,5.70
2019-01-16T01:06:22.416Z,5.80
2019-01-16T01:08:59.413Z,5.80
2019-01-16T01:11:47.584Z,5.70
2019-01-16T01:14:34.731Z,5.70
2019-01-16T01:17:12.631Z,5.80
2019-01-16T01:20:00.722Z,5.80
2019-01-16T01:22:45.366Z,5.80
2019-01-16T01:25:32.130Z,5.70
2019-01-16T01:28:38.090Z,5.80
2019-01-16T01:31:23.088Z,5.70
2019-01-16T01:34:22.818Z,5.80
2019-01-16T01:37:16.713Z,5.80
2019-01-16T01:40:16.690Z,5.80
2019-01-16T01:43:00.755Z,5.80
2019-01-16T01:45:47.470Z,5.80
2019-01-16T01:48:44.905Z,5.80
2019-01-16T01:51:36.348Z,5.90
2019-01-16T01:54:27.757Z,5.80
2019-01-16T01:57:16.005Z,5.90
2019-01-16T02:00:02.918Z,5.80
2019-01-16T02:02:47.380Z,5.90
2019-01-16T02:05:40.613Z,5.80
2019-01-16T02:08:19.171Z,5.80
2019-01-16T02:11:02.866Z,5.80
2019-01-16T02:13:46.957Z,5.80
2019-01-16T02:16:27.525Z,5.80
2019-01-16T02:19:13.356Z,5.80
2019-01-16T02:21:53.666Z,5.80
2019-01-16T02:24:41.991Z,5.80
2019-01-16T02:27:24.716Z,5.90
2019-01-16T02:30:21.860Z,5.90
2019-01-16T02:33:10.039Z,5.90
2019-01-16T02:35:49.799Z,5.90
2019-01-16T02:38:45.569Z,5.90
2019-01-16T02:41:25.910Z,5.80
2019-01-16T02:44:32.245Z,5.80
2019-01-16T02:47:21.435Z,5.80
2019-01-16T02:50:07.827Z,5.80
2019-01-16T02:53:14.091Z,5.70
2019-01-16T02:56:05.132Z,5.80
2019-01-16T02:58:49.715Z,5.80
2019-01-16T03:01:37.834Z,5.70
2019-01-16T03:04:19.126Z,5.70
2019-01-16T03:07:10.019Z,5.80
2019-01-16T03:10:10.531Z,5.70
2019-01-16T03:13:10.398Z,5.70
2019-01-16T03:16:01.109Z,5.70
2019-01-16T03:18:52.434Z,5.70
2019-01-16T03:21:40.644Z,5.80
2019-01-16T03:24:26.400Z,5.70
2019-01-16T03:27:13.083Z,5.70
2019-01-16T03:30:00.160Z,5.80
2019-01-16T03:32:42.860Z,5.80
2019-01-16T03:35:22.458Z,5.90
2019-01-16T03:38:20.225Z,5.80
2019-01-16T03:41:14.078Z,5.80
2019-01-16T03:43:57.254Z,5.80
2019-01-16T03:46:49.867Z,5.80
2019-01-16T03:49:30.697Z,5.80
2019-01-16T03:52:31.245Z,5.90
2019-01-16T03:55:12.934Z,5.90
2019-01-16T03:58:09.778Z,5.90
2019-01-16T04:01:16.556Z,5.90
2019-01-16T04:04:03.352Z,5.90
2019-01-16T04:06:51.434Z,5.90
2019-01-16T04:09:36.369Z,5.90
2019-01-16T04:12:24.618Z,5.90
2019-01-16T04:15:18.516Z,5.90
2019-01-16T04:18:21.496Z,5.90
2019-01-16T04:21:04.006Z,5.90
2019-01-16T04:23:50.408Z,5.90
2019-01-16T04:26:34.880Z,5.90
2019-01-16T04:29:28.846Z,5.90
2019-01-16T04:32:14.485Z,5.80
2019-01-16T04:34:58.190Z,5.90
2019-01-16T04:37:44.732Z,5.90
2019-01-16T04:40:41.992Z,5.90
2019-01-16T04:43:42.218Z,5.90
2019-01-16T04:46:29.274Z,5.90
2019-01-16T04:49:15.988Z,5.90
2019-01-16T04:52:06.416Z,5.90
2019-01-16T04:55:00.354Z,5.90
2019-01-16T04:57:47.221Z,5.90
2019-01-16T05:00:44.483Z,6.00
2019-01-16T05:03:30.991Z,6.00
2019-01-16T05:06:31.482Z,6.00
2019-01-16T05:09:14.160Z,6.00
2019-01-16T05:12:06.893Z,6.00
2019-01-16T05:14:57.020Z,6.00
2019-01-16T05:17:56.975Z,6.00
2019-01-16T05:20:48.098Z,6.00
2019-01-16T05:23:31.132Z,5.90
2019-01-16T05:26:16.748Z,5.90
2019-01-16T05:29:03.548Z,5.90
2019-01-16T05:31:57.546Z,5.90
2019-01-16T05:34:56.193Z,5.90
2019-01-16T05:37:39.082Z,5.90
2019-01-16T05:40:36.873Z,5.90
2019-01-16T05:43:28.153Z,5.90
2019-01-16T05:46:15.029Z,5.90
2019-01-16T05:49:03.014Z,5.90
2019-01-16T05:51:51.062Z,5.90
2019-01-16T05:54:50.673Z,5.80
2019-01-16T05:57:50.650Z,5.90
2019-01-16T06:00:37.687Z,5.90
2019-01-16T06:03:38.152Z,5.90
2019-01-16T06:06:29.829Z,5.90
2019-01-16T06:09:17.187Z,5.90
2019-01-16T06:12:16.535Z,5.90
2019-01-16T06:15:07.647Z,5.80
2019-01-16T06:18:03.039Z,5.80
2019-01-16T06:20:46.139Z,5.80
2019-01-16T06:23:49.420Z,5.70
2019-01-16T06:26:30.469Z,5.70
2019-01-16T06:29:14.223Z,5.80
2019-01-16T06:31:58.443Z,5.80
2019-01-16T06:34:47.075Z,5.80
2019-01-16T06:37:30.396Z,5.70
2019-01-16T06:40:18.926Z,5.70
2019-01-16T06:43:18.777Z,5.70
2019-01-16T06:46:00.189Z,5.70
2019-01-16T06:48:57.421Z,5.70
2019-01-16T06:51:51.298Z,5.80
2019-01-16T06:54:45.511Z,5.80
2019-01-16T06:57:32.278Z,5.80
2019-01-16T07:00:18.939Z,5.80
2019-01-16T07:03:21.813Z,5.80
2019-01-16T07:06:25.192Z,5.80
2019-01-16T07:09:13.733Z,5.80
2019-01-16T07:11:58.681Z,5.80
2019-01-16T07:15:09.703Z,5.80
2019-01-16T07:17:54.147Z,5.80
2019-01-16T07:20:45.079Z,5.90
2019-01-16T07:23:33.227Z,5.90
2019-01-16T07:26:21.020Z,5.90
2019-01-16T07:29:07.883Z,5.90
2019-01-16T07:32:02.190Z,5.90
2019-01-16T07:34:47.783Z,5.80
2019-01-16T07:37:28.717Z,5.80
2019-01-16T07:40:26.037Z,6.20
2019-01-16T07:43:14.356Z,5.80
2019-01-16T07:46:03.791Z,5.80
2019-01-16T07:48:50.449Z,5.80
2019-01-16T07:51:38.898Z,5.80
2019-01-16T07:54:25.162Z,5.80
2019-01-16T07:57:22.974Z,5.80
2019-01-16T08:00:13.429Z,5.80
2019-01-16T08:03:10.228Z,5.80
2019-01-16T08:06:07.090Z,5.80
2019-01-16T08:08:50.228Z,5.80
2019-01-16T08:11:36.405Z,5.80
2019-01-16T08:14:31.001Z,5.80
2019-01-16T08:17:15.895Z,5.80
2019-01-16T08:20:02.783Z,5.70
2019-01-16T08:22:52.469Z,5.70
2019-01-16T08:25:36.790Z,5.70
2019-01-16T08:28:42.926Z,5.70
2019-01-16T08:31:23.655Z,5.70
2019-01-16T08:34:14.429Z,5.70
2019-01-16T08:37:17.814Z,5.70
2019-01-16T08:39:59.339Z,5.70
2019-01-16T08:42:46.254Z,5.70
2019-01-16T08:45:43.667Z,5.80
2019-01-16T08:48:30.246Z,5.80
2019-01-16T08:51:21.517Z,5.70
2019-01-16T08:54:06.705Z,5.70
2019-01-16T08:57:12.745Z,5.80
2019-01-16T09:00:16.138Z,5.70
2019-01-16T09:03:03.032Z,5.70
2019-01-16T09:06:03.090Z,5.70
2019-01-16T09:08:49.797Z,5.70
2019-01-16T09:11:33.085Z,5.70
2019-01-16T09:14:21.290Z,5.70
2019-01-16T09:17:12.238Z,5.70
2019-01-16T09:19:46.867Z,5.70
2019-01-16T09:22:37.921Z,5.70
2019-01-16T09:25:31.913Z,5.70
2019-01-16T09:28:29.110Z,5.80
2019-01-16T09:31:19.446Z,5.80
2019-01-16T09:34:22.799Z,5.80
2019-01-16T09:37:10.989Z,5.80
2019-01-16T09:39:49.657Z,5.90
2019-01-16T09:42:30.337Z,5.90
2019-01-16T09:45:31.104Z,5.90
2019-01-16T09:48:17.045Z,5.80
2019-01-16T09:50:55.669Z,5.80
2019-01-16T09:53:44.472Z,5.80
2019-01-16T09:56:32.589Z,5.80
2019-01-16T09:59:18.910Z,5.90
2019-01-16T10:02:22.519Z,5.90
2019-01-16T10:05:10.900Z,5.90
2019-01-16T10:08:14.182Z,5.90
2019-01-16T10:11:02.695Z,5.90
2019-01-16T10:14:09.296Z,5.90
2019-01-16T10:16:55.743Z,5.90
2019-01-16T10:19:47.246Z,6.00
2019-01-16T10:22:33.745Z,6.00
2019-01-16T10:25:20.506Z,6.00
2019-01-16T10:28:14.553Z,6.00
2019-01-16T10:30:57.749Z,6.10
2019-01-16T10:33:44.662Z,6.00
2019-01-16T10:36:32.870Z,5.90
2019-01-16T10:39:18.762Z,6.00
2019-01-16T10:42:05.739Z,6.00
2019-01-16T10:44:41.927Z,6.10
2019-01-16T10:47:19.051Z,6.10
2019-01-16T10:50:07.114Z,6.10
2019-01-16T10:52:53.809Z,6.10
2019-01-16T10:55:54.205Z,6.10
2019-01-16T10:58:57.539Z,6.00
2019-01-16T11:01:52.638Z,6.00
2019-01-16T11:04:39.361Z,6.00
2019-01-16T11:07:25.933Z,6.00
2019-01-16T11:10:12.825Z,6.00
2019-01-16T11:12:57.769Z,6.00
2019-01-16T11:15:49.006Z,5.90
2019-01-16T11:18:35.784Z,5.80
2019-01-16T11:21:16.179Z,5.80
2019-01-16T11:24:02.991Z,5.80
2019-01-16T11:26:51.125Z,5.90
2019-01-16T11:29:41.883Z,5.90
2019-01-16T11:32:33.184Z,6.00
2019-01-16T11:35:15.015Z,5.90
2019-01-16T11:37:58.981Z,5.80
2019-01-16T11:40:45.466Z,5.80
2019-01-16T11:43:34.042Z,5.80
2019-01-16T11:46:28.431Z,5.90
2019-01-16T11:49:15.414Z,5.90
2019-01-16T11:52:03.776Z,6.00
2019-01-16T11:54:51.741Z,6.00
2019-01-16T11:57:28.891Z,6.10
2019-01-16T12:00:15.651Z,6.10
2019-01-16T12:03:01.516Z,6.20
2019-01-16T12:05:42.792Z,6.10
2019-01-16T12:08:43.747Z,6.20
2019-01-16T12:11:30.811Z,6.20
2019-01-16T12:14:24.895Z,6.20
2019-01-16T12:17:21.906Z,6.20
2019-01-16T12:20:20.293Z,6.10
2019-01-16T12:23:07.223Z,6.00
2019-01-16T12:25:53.951Z,6.10
2019-01-16T12:28:41.233Z,6.20
2019-01-16T12:31:30.581Z,6.20
2019-01-16T12:34:30.773Z,6.10
2019-01-16T12:37:14.401Z,6.20
2019-01-16T12:40:06.550Z,6.10
2019-01-16T12:42:52.457Z,6.10
2019-01-16T12:45:31.126Z,6.20
2019-01-16T12:48:17.806Z,6.10
2019-01-16T12:51:04.348Z,6.10
2019-01-16T12:53:52.895Z,6.20
2019-01-16T12:56:40.018Z,6.20
2019-01-16T12:59:26.587Z,6.20
2019-01-16T13:02:08.492Z,6.20
2019-01-16T13:05:03.391Z,6.20
2019-01-16T13:07:54.346Z,6.20
2019-01-16T13:10:54.398Z,6.20
2019-01-16T13:13:48.618Z,6.30
2019-01-16T13:16:36.889Z,6.40
2019-01-16T13:19:23.551Z,6.40
2019-01-16T13:22:10.656Z,6.40
2019-01-16T13:24:58.458Z,6.40
2019-01-16T13:27:52.814Z,6.40
2019-01-16T13:30:40.984Z,6.50
2019-01-16T13:33:27.544Z,6.50
2019-01-16T13:36:28.073Z,6.50
2019-01-16T13:39:15.076Z,6.50
2019-01-16T13:42:03.714Z,6.60
2019-01-16T13:44:50.499Z,6.50
2019-01-16T13:47:41.503Z,6.50
2019-01-16T13:50:36.080Z,6.50
2019-01-16T13:53:22.675Z,6.50
2019-01-16T13:56:09.329Z,6.50
2019-01-16T13:58:57.588Z,6.40
2019-01-16T14:01:34.915Z,6.50
2019-01-16T14:04:29.290Z,6.40
2019-01-16T14:07:35.637Z,7.20
2019-01-16T14:10:24.393Z,6.50
2019-01-16T14:13:27.247Z,6.60
2019-01-16T14:16:04.792Z,6.60
2019-01-16T14:18:51.297Z,6.70
2019-01-16T14:21:57.609Z,6.70
2019-01-16T14:24:35.132Z,6.70
2019-01-16T14:27:12.480Z,6.70
2019-01-16T14:30:06.853Z,6.70
2019-01-16T14:33:03.717Z,6.70
2019-01-16T14:35:50.188Z,6.60
2019-01-16T14:38:36.790Z,6.50
2019-01-16T14:41:23.859Z,6.50
2019-01-16T14:44:12.030Z,6.50
2019-01-16T14:46:58.795Z,6.50
2019-01-16T14:49:46.951Z,6.50
2019-01-16T14:52:33.496Z,6.50
2019-01-16T14:55:25.778Z,6.50
2019-01-16T14:58:12.279Z,6.50
2019-01-16T15:01:18.537Z,6.50
2019-01-16T15:04:06.702Z,6.50
2019-01-16T15:06:53.490Z,6.50
2019-01-16T15:09:53.506Z,6.40
2019-01-16T15:13:00.080Z,6.40
2019-01-16T15:15:46.138Z,6.40
2019-01-16T15:18:33.274Z,6.40
2019-01-16T15:21:18.047Z,6.40
2019-01-16T15:24:15.095Z,6.30
2019-01-16T15:26:59.711Z,6.30
2019-01-16T15:29:56.770Z,6.30
2019-01-16T15:33:03.207Z,6.20
2019-01-16T15:35:48.101Z,6.20
2019-01-16T15:38:35.146Z,6.10
2019-01-16T15:41:32.962Z,6.10
2019-01-16T15:44:35.971Z,6.00
2019-01-16T15:47:22.541Z,6.00
2019-01-16T15:50:11.788Z,5.90
2019-01-16T15:52:58.550Z,5.80
2019-01-16T15:55:55.405Z,5.80
2019-01-16T15:58:51.765Z,5.70
2019-01-16T16:01:45.967Z,5.70
2019-01-16T16:04:35.903Z,5.60
2019-01-16T16:07:25.881Z,5.60
2019-01-16T16:10:09.867Z,5.50
2019-01-16T16:12:53.635Z,5.50
2019-01-16T16:15:44.205Z,5.50
2019-01-16T16:18:47.381Z,5.40
2019-01-16T16:21:33.867Z,5.40
2019-01-16T16:24:28.034Z,5.40
2019-01-16T16:27:08.175Z,5.40
2019-01-16T16:29:54.931Z,5.40
2019-01-16T16:32:41.599Z,5.30
2019-01-16T16:35:23.225Z,5.30
2019-01-16T16:38:23.115Z,5.30
2019-01-16T16:41:03.718Z,5.30
2019-01-16T16:44:06.857Z,5.30
2019-01-16T16:46:49.198Z,5.30
2019-01-16T16:49:26.677Z,5.30
2019-01-16T16:52:33.010Z,5.20
2019-01-16T16:55:18.990Z,5.20
2019-01-16T16:58:18.880Z,5.20
2019-01-16T17:01:07.712Z,5.20
2019-01-16T17:04:08.280Z,5.10
2019-01-16T17:06:51.226Z,5.10
2019-01-16T17:09:27.195Z,5.10
2019-01-16T17:12:18.173Z,5.10
2019-01-16T17:15:05.254Z,5.10
2019-01-16T17:18:05.682Z,5.10
2019-01-16T17:20:59.713Z,5.10
2019-01-16T17:23:56.761Z,5.10
2019-01-16T17:26:45.012Z,5.10
2019-01-16T17:29:31.745Z,5.10
2019-01-16T17:32:23.210Z,5.10
2019-01-16T17:35:14.317Z,5.10
2019-01-16T17:37:56.810Z,5.10
2019-01-16T17:40:42.584Z,5.00
2019-01-16T17:43:42.513Z,5.00
2019-01-16T17:46:31.005Z,5.00
2019-01-16T17:49:17.748Z,5.00
2019-01-16T17:52:17.367Z,5.00
2019-01-16T17:55:03.819Z,5.00
2019-01-16T17:57:50.596Z,5.00
2019-01-16T18:00:37.665Z,4.90
2019-01-16T18:03:21.422Z,4.90
2019-01-16T18:06:09.509Z,5.00
2019-01-16T18:08:53.332Z,4.90
2019-01-16T18:11:44.375Z,4.90
2019-01-16T18:14:32.370Z,4.90
2019-01-16T18:17:26.508Z,4.90
2019-01-16T18:20:11.289Z,5.00
2019-01-16T18:23:05.839Z,5.00
2019-01-16T18:25:46.011Z,4.90
2019-01-16T18:28:30.065Z,4.90
2019-01-16T18:31:12.717Z,4.90
2019-01-16T18:34:09.754Z,4.90
2019-01-16T18:37:00.904Z,4.90
2019-01-16T18:39:47.380Z,4.90
2019-01-16T18:42:34.156Z,4.90
2019-01-16T18:45:25.450Z,4.90
2019-01-16T18:48:17.557Z,4.90
2019-01-16T18:51:08.519Z,4.80
2019-01-16T18:54:08.795Z,4.80
2019-01-16T18:56:57.384Z,4.80
2019-01-16T18:59:49.523Z,4.80
2019-01-16T19:02:49.751Z,4.80
2019-01-16T19:05:39.726Z,4.80
2019-01-16T19:08:27.836Z,4.80
2019-01-16T19:11:16.381Z,4.80
2019-01-16T19:14:04.617Z,4.80
2019-01-16T19:16:51.502Z,4.80
2019-01-16T19:19:33.174Z,4.80
2019-01-16T19:22:17.017Z,4.80
2019-01-16T19:25:14.293Z,4.80
2019-01-16T19:27:51.442Z,4.80
2019-01-16T19:30:42.605Z,4.80
2019-01-16T19:33:18.316Z,4.80
2019-01-16T19:36:08.766Z,4.80
2019-01-16T19:39:02.605Z,4.80
2019-01-16T19:42:07.330Z,4.80
2019-01-16T19:45:01.237Z,4.80
2019-01-16T19:47:46.128Z,4.80
2019-01-16T19:50:32.823Z,4.80
2019-01-16T19:53:16.760Z,4.80
2019-01-16T19:56:03.223Z,4.80
2019-01-16T19:58:46.685Z,4.80
2019-01-16T20:01:41.293Z,4.80
2019-01-16T20:04:35.649Z,4.80
2019-01-16T20:07:21.742Z,4.70
2019-01-16T20:09:59.947Z,4.80
2019-01-16T20:12:46.554Z,4.80
2019-01-16T20:15:39.576Z,4.80
2019-01-16T20:18:39.791Z,4.90
2019-01-16T20:21:40.239Z,4.90
2019-01-16T20:24:27.334Z,4.90
2019-01-16T20:27:18.473Z,4.80
2019-01-16T20:30:10.095Z,4.80
2019-01-16T20:32:52.560Z,4.80
2019-01-16T20:35:39.757Z,4.80
2019-01-16T20:38:28.508Z,4.80
2019-01-16T20:41:22.751Z,4.80
2019-01-16T20:44:14.795Z,4.80
2019-01-16T20:47:20.935Z,4.70
2019-01-16T20:50:07.569Z,4.80
2019-01-16T20:53:05.762Z,4.80
2019-01-16T20:55:45.801Z,4.80
2019-01-16T20:58:31.622Z,4.80
2019-01-16T21:01:20.052Z,4.80
2019-01-16T21:04:23.266Z,4.80
2019-01-16T21:07:10.244Z,4.80
2019-01-16T21:10:04.357Z,4.80
2019-01-16T21:12:56.924Z,4.80
2019-01-16T21:15:51.756Z,4.80
2019-01-16T21:18:35.467Z,4.80
2019-01-16T21:21:13.219Z,4.80
2019-01-16T21:23:57.118Z,4.80
2019-01-16T21:26:36.842Z,4.80
2019-01-16T21:29:18.127Z,4.80
2019-01-16T21:31:57.293Z,4.80
2019-01-16T21:35:03.518Z,4.70
2019-01-16T21:37:48.444Z,4.70
2019-01-16T21:40:36.510Z,4.80
2019-01-16T21:43:27.391Z,4.80
2019-01-16T21:46:18.418Z,4.90
2019-01-16T21:49:07.842Z,4.80
2019-01-16T21:51:50.457Z,4.90
2019-01-16T21:54:30.879Z,4.90
2019-01-16T21:57:19.037Z,4.90
2019-01-16T22:00:09.851Z,4.90
2019-01-16T22:02:53.684Z,5.00
2019-01-16T22:05:34.918Z,5.00
2019-01-16T22:08:29.741Z,5.10
2019-01-16T22:11:13.017Z,5.10
2019-01-16T22:14:00.073Z,5.20
2019-01-16T22:16:48.224Z,5.20
2019-01-16T22:19:32.644Z,5.20
2019-01-16T22:22:19.417Z,5.20
2019-01-16T22:25:05.909Z,5.30
2019-01-16T22:27:49.518Z,5.30
2019-01-16T22:30:28.717Z,5.30
2019-01-16T22:33:15.498Z,5.30
2019-01-16T22:36:09.901Z,5.30
2019-01-16T22:39:07.466Z,5.30
2019-01-16T22:41:55.565Z,5.40
2019-01-16T22:44:49.442Z,5.40
2019-01-16T22:47:36.511Z,5.40
2019-01-16T22:50:21.901Z,5.40
2019-01-16T22:53:12.936Z,5.40
2019-01-16T22:55:59.644Z,5.40
2019-01-16T22:58:46.500Z,5.40
2019-01-16T23:01:34.684Z,5.50
2019-01-16T23:04:15.097Z,5.50
2019-01-16T23:06:50.790Z,5.50
2019-01-16T23:09:29.057Z,5.60
2019-01-16T23:12:16.022Z,5.60
2019-01-16T23:14:52.586Z,5.70
2019-01-16T23:17:40.699Z,5.80
2019-01-16T23:20:27.504Z,5.90
2019-01-16T23:23:05.065Z,5.90
2019-01-16T23:25:45.030Z,5.90
2019-01-16T23:28:29.787Z,6.00
2019-01-16T23:31:10.415Z,6.00
2019-01-16T23:33:47.990Z,6.00
2019-01-16T23:36:42.075Z,6.00
2019-01-16T23:39:42.343Z,6.00
2019-01-16T23:42:30.599Z,6.10
2019-01-16T23:45:10.798Z,6.10
2019-01-16T23:47:59.179Z,6.10
2019-01-16T23:50:40.939Z,6.10
2019-01-16T23:53:35.862Z,6.10
2019-01-16T23:56:16.881Z,6.10
2019-01-16T23:59:06.053Z,6.10
